createdAt,value
2019-05-16T00:00:49.541Z,1.07
2019-05-16T00:03:18.699Z,0.93
2019-05-16T00:05:53.960Z,0.90
2019-05-16T00:08:18.755Z,0.97
2019-05-16T00:10:48.684Z,1.10
2019-05-16T00:13:18.693Z,0.67
2019-05-16T00:15:48.231Z,0.90
2019-05-16T00:18:17.865Z,0.90
2019-05-16T00:20:49.256Z,0.90
2019-05-16T00:23:18.212Z,0.90
2019-05-16T00:25:47.892Z,0.97
2019-05-16T00:28:18.047Z,0.90
2019-05-16T00:30:48.671Z,0.87
2019-05-16T00:33:18.400Z,1.20
2019-05-16T00:35:48.238Z,0.90
2019-05-16T00:38:18.462Z,1.17
2019-05-16T00:40:48.725Z,1.30
2019-05-16T00:43:18.417Z,1.00
2019-05-16T00:45:48.654Z,1.40
2019-05-16T00:48:18.398Z,1.00
2019-05-16T00:50:48.219Z,1.00
2019-05-16T00:53:18.165Z,1.03
2019-05-16T00:55:48.468Z,1.03
2019-05-16T00:58:19.016Z,1.20
2019-05-16T01:00:50.473Z,0.80
2019-05-16T01:03:20.594Z,1.10
2019-05-16T01:05:49.560Z,1.17
2019-05-16T01:08:19.100Z,0.97
2019-05-16T01:10:51.512Z,1.00
2019-05-16T01:13:19.203Z,1.20
2019-05-16T01:15:48.594Z,1.30
2019-05-16T01:18:18.883Z,1.13
2019-05-16T01:20:48.537Z,1.30
2019-05-16T01:23:18.286Z,1.20
2019-05-16T01:25:48.377Z,1.20
2019-05-16T01:28:22.506Z,1.30
2019-05-16T01:30:53.811Z,1.30
2019-05-16T01:33:23.881Z,1.20
2019-05-16T01:35:52.840Z,1.13
2019-05-16T01:38:21.730Z,1.23
2019-05-16T01:40:50.620Z,1.07
2019-05-16T01:43:19.613Z,1.40
2019-05-16T01:45:48.825Z,1.50
2019-05-16T01:48:19.155Z,1.00
2019-05-16T01:50:49.052Z,1.20
2019-05-16T01:53:18.090Z,1.40
2019-05-16T01:55:48.866Z,1.17
2019-05-16T01:58:20.100Z,1.13
2019-05-16T02:01:02.547Z,1.17
2019-05-16T02:03:20.779Z,1.30
2019-05-16T02:05:49.768Z,1.20
2019-05-16T02:08:18.654Z,1.50
2019-05-16T02:10:47.955Z,1.50
2019-05-16T02:13:17.927Z,1.70
2019-05-16T02:15:48.923Z,1.30
2019-05-16T02:18:19.343Z,1.30
2019-05-16T02:20:48.246Z,1.20
2019-05-16T02:23:18.882Z,1.30
2019-05-16T02:25:49.360Z,1.30
2019-05-16T02:28:21.016Z,1.20
2019-05-16T02:30:51.469Z,1.50
2019-05-16T02:33:21.226Z,1.53
2019-05-16T02:35:54.782Z,1.40
2019-05-16T02:38:21.202Z,1.00
2019-05-16T02:40:54.889Z,1.40
2019-05-16T02:43:26.349Z,1.50
2019-05-16T02:45:52.327Z,1.53
2019-05-16T02:48:22.677Z,1.50
2019-05-16T02:50:51.745Z,1.30
2019-05-16T02:53:22.826Z,1.20
2019-05-16T02:55:52.417Z,1.20
2019-05-16T02:58:23.242Z,1.57
2019-05-16T03:00:52.535Z,1.63
2019-05-16T03:03:21.797Z,1.33
2019-05-16T03:05:52.640Z,1.50
2019-05-16T03:08:23.067Z,1.23
2019-05-16T03:10:53.734Z,1.50
2019-05-16T03:13:24.024Z,1.40
2019-05-16T03:15:53.632Z,1.80
2019-05-16T03:18:25.256Z,2.00
2019-05-16T03:21:00.405Z,1.77
2019-05-16T03:23:30.710Z,1.50
2019-05-16T03:26:00.862Z,1.37
2019-05-16T03:28:30.687Z,1.50
2019-05-16T03:31:04.693Z,1.80
2019-05-16T03:33:35.218Z,1.57
2019-05-16T03:36:04.557Z,1.40
2019-05-16T03:38:32.057Z,1.37
2019-05-16T03:41:01.144Z,1.90
2019-05-16T03:43:31.096Z,1.40
2019-05-16T03:46:02.436Z,1.60
2019-05-16T03:48:31.685Z,1.30
2019-05-16T03:51:01.346Z,1.60
2019-05-16T03:53:31.801Z,1.70
2019-05-16T03:56:01.770Z,1.77
2019-05-16T03:58:31.360Z,1.60
2019-05-16T04:01:02.451Z,1.73
2019-05-16T04:03:33.262Z,1.40
2019-05-16T04:06:01.963Z,1.50
2019-05-16T04:08:31.283Z,1.57
2019-05-16T04:11:01.374Z,1.17
2019-05-16T04:13:32.103Z,1.30
2019-05-16T04:16:01.489Z,1.50
2019-05-16T04:18:32.101Z,1.40
2019-05-16T04:21:01.863Z,1.27
2019-05-16T04:23:31.470Z,1.53
2019-05-16T04:26:01.282Z,1.30
2019-05-16T04:28:31.808Z,1.33
2019-05-16T04:31:01.856Z,1.20
2019-05-16T04:33:31.342Z,1.00
2019-05-16T04:36:01.459Z,1.57
2019-05-16T04:38:40.406Z,0.90
2019-05-16T04:41:01.752Z,1.07
2019-05-16T04:43:31.765Z,1.30
2019-05-16T04:46:01.738Z,1.30
2019-05-16T04:48:31.561Z,1.37
2019-05-16T04:51:01.600Z,1.90
2019-05-16T04:53:32.515Z,1.67
2019-05-16T04:56:01.924Z,1.30
2019-05-16T04:58:31.881Z,1.77
2019-05-16T05:01:01.874Z,1.83
2019-05-16T05:03:31.834Z,1.20
2019-05-16T05:06:01.597Z,1.30
2019-05-16T05:08:48.685Z,1.10
2019-05-16T05:11:01.721Z,1.23
2019-05-16T05:13:30.842Z,1.60
2019-05-16T05:16:01.340Z,1.33
2019-05-16T05:18:31.130Z,1.20
2019-05-16T05:21:00.854Z,1.03
2019-05-16T05:23:30.652Z,1.30
2019-05-16T05:26:00.277Z,1.40
2019-05-16T05:28:30.116Z,1.03
2019-05-16T05:30:59.887Z,1.43
2019-05-16T05:33:31.223Z,1.40
2019-05-16T05:36:01.007Z,1.20
2019-05-16T05:38:31.157Z,1.00
2019-05-16T05:41:00.675Z,1.17
2019-05-16T05:43:30.571Z,1.03
2019-05-16T05:46:00.685Z,1.40
2019-05-16T05:48:30.985Z,1.40
2019-05-16T05:51:00.641Z,1.07
2019-05-16T05:53:30.023Z,1.33
2019-05-16T05:56:00.487Z,1.03
2019-05-16T05:58:31.034Z,1.37
2019-05-16T06:01:00.916Z,1.20
2019-05-16T06:03:32.724Z,1.37
2019-05-16T06:06:01.164Z,1.40
2019-05-16T06:08:31.035Z,1.10
2019-05-16T06:11:00.886Z,1.40
2019-05-16T06:13:30.998Z,1.00
2019-05-16T06:16:00.810Z,1.20
2019-05-16T06:18:30.533Z,1.30
2019-05-16T06:21:00.660Z,1.10
2019-05-16T06:23:31.277Z,1.20
2019-05-16T06:26:00.824Z,1.43
2019-05-16T06:28:30.799Z,1.00
2019-05-16T06:31:01.976Z,1.13
2019-05-16T06:33:30.831Z,1.70
2019-05-16T06:36:00.298Z,1.40
2019-05-16T06:38:30.104Z,1.57
2019-05-16T06:41:00.460Z,1.37
2019-05-16T06:43:30.414Z,1.57
2019-05-16T06:46:00.540Z,1.33
2019-05-16T06:48:30.584Z,1.43
2019-05-16T06:51:02.997Z,1.40
2019-05-16T06:53:30.865Z,1.50
2019-05-16T06:56:00.175Z,1.10
2019-05-16T06:58:30.378Z,1.20
2019-05-16T07:01:03.453Z,1.20
2019-05-16T07:03:30.969Z,1.00
2019-05-16T07:06:00.776Z,1.00
2019-05-16T07:08:31.066Z,1.23
2019-05-16T07:11:00.882Z,1.20
2019-05-16T07:13:30.446Z,0.80
2019-05-16T07:16:00.535Z,0.93
2019-05-16T07:18:30.924Z,0.80
2019-05-16T07:21:00.745Z,0.70
2019-05-16T07:23:29.988Z,0.77
2019-05-16T07:26:00.793Z,0.63
2019-05-16T07:28:30.190Z,0.80
2019-05-16T07:31:02.619Z,0.73
2019-05-16T07:33:31.253Z,1.07
2019-05-16T07:36:00.848Z,0.87
2019-05-16T07:38:30.964Z,1.00
2019-05-16T07:41:00.372Z,1.00
2019-05-16T07:43:30.982Z,1.23
2019-05-16T07:46:00.524Z,1.10
2019-05-16T07:48:31.585Z,0.80
2019-05-16T07:51:00.757Z,0.83
2019-05-16T07:53:32.796Z,0.73
2019-05-16T07:56:00.277Z,0.80
2019-05-16T07:58:31.334Z,0.67
2019-05-16T08:01:07.390Z,0.63
2019-05-16T08:03:30.833Z,0.70
2019-05-16T08:06:01.692Z,0.80
2019-05-16T08:08:31.442Z,0.70
2019-05-16T08:11:01.379Z,0.77
2019-05-16T08:13:31.369Z,0.60
2019-05-16T08:16:01.112Z,0.80
2019-05-16T08:18:30.678Z,0.60
2019-05-16T08:21:01.224Z,0.70
2019-05-16T08:23:30.976Z,0.70
2019-05-16T08:28:31.207Z,0.90
2019-05-16T08:31:01.111Z,1.10
2019-05-16T08:33:32.055Z,0.80
2019-05-16T08:36:07.099Z,0.77
2019-05-16T08:38:31.895Z,0.90
2019-05-16T08:41:11.501Z,0.70
2019-05-16T08:43:31.751Z,0.90
2019-05-16T08:46:01.842Z,1.00
2019-05-16T08:48:31.835Z,0.80
2019-05-16T08:51:02.822Z,0.90
2019-05-16T08:53:32.130Z,1.30
2019-05-16T08:56:02.558Z,1.00
2019-05-16T08:58:33.237Z,0.83
2019-05-16T09:01:02.698Z,1.10
2019-05-16T09:03:32.902Z,0.90
2019-05-16T09:06:03.196Z,0.90
2019-05-16T09:08:33.038Z,1.07
2019-05-16T09:10:39.043Z,1.07
2019-05-16T09:11:26.637Z,0.90
2019-05-16T09:13:33.263Z,1.30
2019-05-16T09:16:02.253Z,1.37
2019-05-16T09:18:40.723Z,1.23
2019-05-16T09:21:01.644Z,1.40
2019-05-16T09:23:30.564Z,1.43
2019-05-16T09:25:59.450Z,0.77
2019-05-16T09:28:28.756Z,1.10
2019-05-16T09:30:58.376Z,0.90
2019-05-16T09:33:27.384Z,1.10
2019-05-16T09:35:57.565Z,1.20
2019-05-16T09:38:32.744Z,0.87
2019-05-16T09:40:57.715Z,0.83
2019-05-16T09:43:28.054Z,1.33
2019-05-16T09:46:03.722Z,1.00
2019-05-16T09:48:28.588Z,1.23
2019-05-16T09:50:57.870Z,0.83
2019-05-16T09:53:28.151Z,0.73
2019-05-16T09:55:57.637Z,1.07
2019-05-16T09:58:27.919Z,0.70
2019-05-16T10:00:58.881Z,1.03
2019-05-16T10:03:27.870Z,1.00
2019-05-16T10:05:57.353Z,0.93
2019-05-16T10:08:27.091Z,0.80
2019-05-16T10:10:57.090Z,0.70
2019-05-16T10:13:27.736Z,0.80
2019-05-16T10:15:57.443Z,0.63
2019-05-16T10:18:27.884Z,0.93
2019-05-16T10:20:59.237Z,1.30
2019-05-16T10:23:28.404Z,0.87
2019-05-16T10:25:58.790Z,1.00
2019-05-16T10:28:27.855Z,0.97
2019-05-16T10:30:57.547Z,1.10
2019-05-16T10:33:27.522Z,2.40
2019-05-16T10:35:57.965Z,2.03
2019-05-16T10:38:28.683Z,1.30
2019-05-16T10:40:58.230Z,1.73
2019-05-16T10:43:27.121Z,1.10
2019-05-16T10:45:56.114Z,1.17
2019-05-16T10:48:27.034Z,0.80
2019-05-16T10:50:57.713Z,1.13
2019-05-16T10:53:53.771Z,1.10
2019-05-16T10:55:57.283Z,1.10
2019-05-16T10:58:36.526Z,0.90
2019-05-16T11:01:14.979Z,1.10
2019-05-16T11:03:29.411Z,1.10
2019-05-16T11:06:05.576Z,1.00
2019-05-16T11:08:28.830Z,1.40
2019-05-16T11:10:57.881Z,1.13
2019-05-16T11:13:28.104Z,1.10
2019-05-16T11:15:58.457Z,1.10
2019-05-16T11:18:27.482Z,1.53
2019-05-16T11:20:57.987Z,1.20
2019-05-16T11:23:30.669Z,1.00
2019-05-16T11:25:59.154Z,1.30
2019-05-16T11:28:28.147Z,1.00
2019-05-16T11:31:02.571Z,1.07
2019-05-16T11:33:28.166Z,1.47
2019-05-16T11:35:58.009Z,1.20
2019-05-16T11:38:26.992Z,1.67
2019-05-16T11:40:56.808Z,1.13
2019-05-16T11:43:27.853Z,1.30
2019-05-16T11:45:57.452Z,0.97
2019-05-16T11:48:29.527Z,1.50
2019-05-16T11:50:57.484Z,1.27
2019-05-16T11:53:28.346Z,0.90
2019-05-16T11:56:01.195Z,1.10
2019-05-16T11:58:27.439Z,1.30
2019-05-16T12:00:57.445Z,1.00
2019-05-16T12:03:46.937Z,1.37
2019-05-16T12:06:17.155Z,1.20
2019-05-16T12:08:46.871Z,1.20
2019-05-16T12:11:17.936Z,1.60
2019-05-16T12:13:47.625Z,1.40
2019-05-16T12:16:18.853Z,1.13
2019-05-16T12:18:47.845Z,0.90
2019-05-16T12:21:17.217Z,1.40
2019-05-16T12:23:47.266Z,1.40
2019-05-16T12:26:17.608Z,1.03
2019-05-16T12:28:47.403Z,1.00
2019-05-16T12:31:17.379Z,1.30
2019-05-16T12:33:47.848Z,1.03
2019-05-16T12:36:18.072Z,1.13
2019-05-16T12:38:47.063Z,1.17
2019-05-16T12:41:15.957Z,1.20
2019-05-16T12:43:50.521Z,1.37
2019-05-16T12:46:15.681Z,1.30
2019-05-16T12:48:47.194Z,1.83
2019-05-16T12:51:17.135Z,1.40
2019-05-16T12:53:47.843Z,1.40
2019-05-16T12:56:17.545Z,1.17
2019-05-16T12:58:47.252Z,1.30
2019-05-16T13:01:20.563Z,1.90
2019-05-16T13:03:48.010Z,1.17
2019-05-16T13:06:17.766Z,1.30
2019-05-16T13:08:46.890Z,1.50
2019-05-16T13:11:17.777Z,1.20
2019-05-16T13:14:02.167Z,1.40
2019-05-16T13:16:17.938Z,1.53
2019-05-16T13:18:47.450Z,1.40
2019-05-16T13:21:18.405Z,1.30
2019-05-16T13:23:47.679Z,1.20
2019-05-16T13:26:17.682Z,1.23
2019-05-16T13:28:47.782Z,0.90
2019-05-16T13:31:17.440Z,1.60
2019-05-16T13:33:46.316Z,1.13
2019-05-16T13:36:17.456Z,1.20
2019-05-16T13:38:48.113Z,1.20
2019-05-16T13:41:18.267Z,1.10
2019-05-16T13:43:46.898Z,1.40
2019-05-16T13:46:17.222Z,1.50
2019-05-16T13:48:46.316Z,1.20
2019-05-16T13:51:18.471Z,1.20
2019-05-16T13:53:47.175Z,1.70
2019-05-16T13:56:17.588Z,1.33
2019-05-16T13:58:47.091Z,2.00
2019-05-16T14:01:17.109Z,1.60
2019-05-16T14:03:48.202Z,1.60
2019-05-16T14:06:18.466Z,1.57
2019-05-16T14:08:47.784Z,1.77
2019-05-16T14:11:17.257Z,2.17
2019-05-16T14:13:47.130Z,1.40
2019-05-16T14:16:18.030Z,1.33
2019-05-16T14:18:47.238Z,2.10
2019-05-16T14:21:18.200Z,1.50
2019-05-16T14:23:53.238Z,1.97
2019-05-16T14:26:17.423Z,2.07
2019-05-16T14:28:48.811Z,1.80
2019-05-16T14:31:17.557Z,1.90
2019-05-16T14:33:47.458Z,2.00
2019-05-16T14:36:17.154Z,2.20
2019-05-16T14:38:46.797Z,2.20
2019-05-16T14:41:17.339Z,2.13
2019-05-16T14:43:47.206Z,2.10
2019-05-16T14:46:18.325Z,1.90
2019-05-16T14:48:46.625Z,1.80
2019-05-16T14:51:17.882Z,2.90
2019-05-16T14:54:07.559Z,2.90
2019-05-16T14:56:38.281Z,2.60
2019-05-16T14:59:08.268Z,2.60
2019-05-16T15:01:37.857Z,2.67
2019-05-16T15:04:07.561Z,2.63
2019-05-16T15:06:37.560Z,2.80
2019-05-16T15:09:09.908Z,2.97
2019-05-16T15:11:38.899Z,2.80
2019-05-16T15:14:07.892Z,2.43
2019-05-16T15:16:36.783Z,3.10
2019-05-16T15:19:07.975Z,2.60
2019-05-16T15:21:36.203Z,2.80
2019-05-16T15:24:06.967Z,3.47
2019-05-16T15:26:37.521Z,3.07
2019-05-16T15:29:08.174Z,3.50
2019-05-16T15:31:39.513Z,3.40
2019-05-16T15:34:07.211Z,3.73
2019-05-16T15:36:37.268Z,2.70
2019-05-16T15:39:09.317Z,3.27
2019-05-16T15:41:38.196Z,3.50
2019-05-16T15:44:07.752Z,3.30
2019-05-16T15:46:38.424Z,3.17
2019-05-16T15:49:09.563Z,3.50
2019-05-16T15:51:39.355Z,2.90
2019-05-16T15:54:08.274Z,4.50
2019-05-16T15:56:40.037Z,3.80
2019-05-16T15:59:09.794Z,3.50
2019-05-16T16:01:39.553Z,3.80
2019-05-16T16:04:08.436Z,3.60
2019-05-16T16:06:37.961Z,3.60
2019-05-16T16:09:08.504Z,3.73
2019-05-16T16:11:37.549Z,3.50
2019-05-16T16:14:07.206Z,4.10
2019-05-16T16:16:36.172Z,3.80
2019-05-16T16:19:06.571Z,3.70
2019-05-16T16:21:37.974Z,3.80
2019-05-16T16:24:09.077Z,3.80
2019-05-16T16:26:38.198Z,3.93
2019-05-16T16:29:07.897Z,3.90
2019-05-16T16:31:36.926Z,3.73
2019-05-16T16:34:07.533Z,4.27
2019-05-16T16:36:37.027Z,3.40
2019-05-16T16:39:08.836Z,4.43
2019-05-16T16:41:37.748Z,4.30
2019-05-16T16:44:07.666Z,4.30
2019-05-16T16:46:37.615Z,3.83
2019-05-16T16:49:07.518Z,4.37
2019-05-16T16:51:37.414Z,4.17
2019-05-16T16:54:07.608Z,3.73
2019-05-16T16:56:37.121Z,4.20
2019-05-16T16:59:06.489Z,4.33
2019-05-16T17:01:37.359Z,4.57
2019-05-16T17:04:06.579Z,4.70
2019-05-16T17:06:37.415Z,5.60
2019-05-16T17:09:07.919Z,4.90
2019-05-16T17:11:37.139Z,4.70
2019-05-16T17:14:06.910Z,3.60
2019-05-16T17:16:37.778Z,4.90
2019-05-16T17:19:07.615Z,4.50
2019-05-16T17:21:36.939Z,4.20
2019-05-16T17:24:06.423Z,4.80
2019-05-16T17:26:37.662Z,3.97
2019-05-16T17:29:06.562Z,5.20
2019-05-16T17:31:35.576Z,4.37
2019-05-16T17:34:04.437Z,4.27
2019-05-16T17:36:33.280Z,4.60
2019-05-16T17:39:02.336Z,5.63
2019-05-16T17:41:32.968Z,6.13
2019-05-16T17:44:01.960Z,4.17
2019-05-16T17:46:36.812Z,4.13
2019-05-16T17:49:01.327Z,4.43
2019-05-16T17:51:30.211Z,4.50
2019-05-16T17:53:59.048Z,6.17
2019-05-16T17:56:27.892Z,4.77
2019-05-16T17:58:56.984Z,4.50
2019-05-16T18:01:27.411Z,4.50
2019-05-16T18:03:57.209Z,3.60
2019-05-16T18:06:27.155Z,3.90
2019-05-16T18:08:57.133Z,4.80
2019-05-16T18:11:26.782Z,5.47
2019-05-16T18:13:57.034Z,4.97
2019-05-16T18:16:26.003Z,3.90
2019-05-16T18:18:57.338Z,4.20
2019-05-16T18:21:25.431Z,3.90
2019-05-16T18:23:54.311Z,4.40
2019-05-16T18:26:23.246Z,4.10
2019-05-16T18:28:52.234Z,3.97
2019-05-16T18:31:21.127Z,3.83
2019-05-16T18:33:49.982Z,3.97
2019-05-16T18:36:18.908Z,4.00
2019-05-16T18:38:48.002Z,3.93
2019-05-16T18:41:16.996Z,4.10
2019-05-16T18:43:47.202Z,3.50
2019-05-16T18:46:16.398Z,3.57
2019-05-16T18:48:47.182Z,3.40
2019-05-16T18:51:16.241Z,6.83
2019-05-16T18:53:46.554Z,4.40
2019-05-16T18:56:16.865Z,3.90
2019-05-16T18:58:46.670Z,3.67
2019-05-16T19:01:17.658Z,3.37
2019-05-16T19:03:46.449Z,3.60
2019-05-16T19:06:17.062Z,4.00
2019-05-16T19:08:46.137Z,4.43
2019-05-16T19:11:17.395Z,4.80
2019-05-16T19:13:47.471Z,4.63
2019-05-16T19:16:16.958Z,4.93
2019-05-16T19:18:46.024Z,5.67
2019-05-16T19:21:16.803Z,4.60
2019-05-16T19:23:45.356Z,4.47
2019-05-16T19:26:16.527Z,5.23
2019-05-16T19:28:46.702Z,4.10
2019-05-16T19:31:17.183Z,4.30
2019-05-16T19:33:48.588Z,4.83
2019-05-16T19:36:16.614Z,4.03
2019-05-16T19:38:46.611Z,4.00
2019-05-16T19:41:16.494Z,3.40
2019-05-16T19:43:46.637Z,3.67
2019-05-16T19:46:15.582Z,4.03
2019-05-16T19:48:46.336Z,4.33
2019-05-16T19:51:16.321Z,3.83
2019-05-16T19:53:47.104Z,3.93
2019-05-16T19:56:17.784Z,4.30
2019-05-16T19:58:46.802Z,3.97
2019-05-16T20:01:16.814Z,4.33
2019-05-16T20:03:47.149Z,4.70
2019-05-16T20:06:16.800Z,4.50
2019-05-16T20:08:45.852Z,4.93
2019-05-16T20:11:16.789Z,5.33
2019-05-16T20:13:47.243Z,5.23
2019-05-16T20:16:16.461Z,4.87
2019-05-16T20:18:46.653Z,4.73
2019-05-16T20:21:16.475Z,4.13
2019-05-16T20:23:47.262Z,4.13
2019-05-16T20:26:16.938Z,5.20
2019-05-16T20:28:47.433Z,4.20
2019-05-16T20:31:17.070Z,4.60
2019-05-16T20:33:46.894Z,4.30
2019-05-16T20:36:17.340Z,4.53
2019-05-16T20:38:46.636Z,4.63
2019-05-16T20:41:17.033Z,4.80
2019-05-16T20:43:47.505Z,4.33
2019-05-16T20:46:17.010Z,5.53
2019-05-16T20:48:45.967Z,4.40
2019-05-16T20:51:16.586Z,3.80
2019-05-16T20:53:46.829Z,4.73
2019-05-16T20:56:17.158Z,5.00
2019-05-16T20:58:46.751Z,4.80
2019-05-16T21:01:17.368Z,4.40
2019-05-16T21:03:46.753Z,5.03
2019-05-16T21:06:17.084Z,5.00
2019-05-16T21:08:46.303Z,4.27
2019-05-16T21:11:17.169Z,5.22
2019-05-16T21:13:48.860Z,4.70
2019-05-16T21:16:17.231Z,4.50
2019-05-16T21:18:47.011Z,4.83
2019-05-16T21:21:19.249Z,5.13
2019-05-16T21:23:47.190Z,4.90
2019-05-16T21:26:16.450Z,4.87
2019-05-16T21:28:46.297Z,5.57
2019-05-16T21:31:16.410Z,5.73
2019-05-16T21:33:47.058Z,7.33
2019-05-16T21:36:19.031Z,7.27
2019-05-16T21:38:47.295Z,6.57
2019-05-16T21:41:16.830Z,6.30
2019-05-16T21:43:47.001Z,5.23
2019-05-16T21:46:17.134Z,5.90
2019-05-16T21:48:47.378Z,5.30
2019-05-16T21:51:19.711Z,5.57
2019-05-16T21:53:48.216Z,5.33
2019-05-16T21:56:17.625Z,4.70
2019-05-16T21:58:47.502Z,4.90
2019-05-16T22:01:19.906Z,4.80
2019-05-16T22:03:48.796Z,5.00
2019-05-16T22:06:17.789Z,4.90
2019-05-16T22:08:46.858Z,5.30
2019-05-16T22:11:17.940Z,5.10
2019-05-16T22:13:46.920Z,5.73
2019-05-16T22:16:17.654Z,4.70
2019-05-16T22:18:47.428Z,4.63
2019-05-16T22:21:16.970Z,5.70
2019-05-16T22:23:46.684Z,4.90
2019-05-16T22:26:16.785Z,5.87
2019-05-16T22:28:49.496Z,4.67
2019-05-16T22:31:17.449Z,4.60
2019-05-16T22:33:46.966Z,4.60
2019-05-16T22:36:17.358Z,4.43
2019-05-16T22:38:46.988Z,5.00
2019-05-16T22:41:17.263Z,4.60
2019-05-16T22:43:46.705Z,5.90
2019-05-16T22:46:17.699Z,4.70
2019-05-16T22:48:46.781Z,4.30
2019-05-16T22:51:17.176Z,4.73
2019-05-16T22:53:46.173Z,4.90
2019-05-16T22:56:17.268Z,4.70
2019-05-16T22:58:46.859Z,5.10
2019-05-16T23:01:17.683Z,5.00
2019-05-16T23:03:46.650Z,5.07
2019-05-16T23:06:16.291Z,4.87
2019-05-16T23:08:47.146Z,4.60
2019-05-16T23:11:16.346Z,4.40
2019-05-16T23:13:46.293Z,4.40
2019-05-16T23:16:17.194Z,4.63
2019-05-16T23:18:46.517Z,5.30
2019-05-16T23:21:17.047Z,4.90
2019-05-16T23:23:46.623Z,5.03
2019-05-16T23:26:16.842Z,5.00
2019-05-16T23:28:47.199Z,4.30
2019-05-16T23:31:16.620Z,5.30
2019-05-16T23:33:47.012Z,5.10
2019-05-16T23:36:17.592Z,4.63
2019-05-16T23:38:47.913Z,5.90
2019-05-16T23:41:17.267Z,5.37
2019-05-16T23:43:47.411Z,4.97
2019-05-16T23:46:16.597Z,4.77
2019-05-16T23:48:47.181Z,4.90
2019-05-16T23:51:17.691Z,4.97
2019-05-16T23:53:46.683Z,4.87
2019-05-16T23:56:16.716Z,5.00
2019-05-16T23:58:47.753Z,4.50
